sensor_id;sensor_type;location;lat;lon;timestamp;P1;durP1;ratioP1;P2;durP2;ratioP2
28714;SDS011;15886;49.170;14.572;2023-10-09T00:00:14;11.70;;;5.50;;
28714;SDS011;15886;49.170;14.572;2023-10-09T00:02:58;11.05;;;5.82;;
28714;SDS011;15886;49.170;14.572;2023-10-09T00:05:28;9.93;;;5.82;;
28714;SDS011;15886;49.170;14.572;2023-10-09T00:08:14;11.23;;;7.05;;
28714;SDS011;15886;49.170;14.572;2023-10-09T00:10:58;13.00;;;6.60;;
28714;SDS011;15886;49.170;14.572;2023-10-09T00:13:41;10.65;;;5.80;;
28714;SDS011;15886;49.170;14.572;2023-10-09T00:16:21;11.13;;;6.22;;
28714;SDS011;15886;49.170;14.572;2023-10-09T00:19:03;11.25;;;6.53;;
28714;SDS011;15886;49.170;14.572;2023-10-09T00:21:44;12.65;;;7.00;;
28714;SDS011;15886;49.170;14.572;2023-10-09T00:24:15;14.35;;;7.97;;
28714;SDS011;15886;49.170;14.572;2023-10-09T00:26:51;16.90;;;7.68;;
28714;SDS011;15886;49.170;14.572;2023-10-09T00:29:23;12.15;;;7.32;;
28714;SDS011;15886;49.170;14.572;2023-10-09T00:31:54;14.65;;;7.47;;
28714;SDS011;15886;49.170;14.572;2023-10-09T00:34:30;12.63;;;7.55;;
28714;SDS011;15886;49.170;14.572;2023-10-09T00:37:10;13.90;;;7.07;;
28714;SDS011;15886;49.170;14.572;2023-10-09T00:39:43;10.77;;;7.05;;
28714;SDS011;15886;49.170;14.572;2023-10-09T00:42:12;12.02;;;6.90;;
28714;SDS011;15886;49.170;14.572;2023-10-09T00:44:41;9.52;;;6.50;;
28714;SDS011;15886;49.170;14.572;2023-10-09T00:47:13;10.23;;;6.22;;
28714;SDS011;15886;49.170;14.572;2023-10-09T00:49:54;11.05;;;6.15;;
28714;SDS011;15886;49.170;14.572;2023-10-09T00:52:38;13.45;;;6.75;;
28714;SDS011;15886;49.170;14.572;2023-10-09T00:55:11;16.20;;;6.43;;
28714;SDS011;15886;49.170;14.572;2023-10-09T00:57:55;12.55;;;5.68;;
28714;SDS011;15886;49.170;14.572;2023-10-09T01:00:26;15.05;;;6.15;;
28714;SDS011;15886;49.170;14.572;2023-10-09T01:03:03;10.48;;;5.85;;
28714;SDS011;15886;49.170;14.572;2023-10-09T01:05:59;10.38;;;4.85;;
28714;SDS011;15886;49.170;14.572;2023-10-09T01:08:38;10.45;;;5.45;;
28714;SDS011;15886;49.170;14.572;2023-10-09T01:13:46;8.57;;;5.28;;
28714;SDS011;15886;49.170;14.572;2023-10-09T01:16:21;9.38;;;5.07;;
28714;SDS011;15886;49.170;14.572;2023-10-09T01:18:54;12.88;;;6.03;;
28714;SDS011;15886;49.170;14.572;2023-10-09T01:21:33;8.45;;;4.95;;
28714;SDS011;15886;49.170;14.572;2023-10-09T01:26:31;9.00;;;6.43;;
28714;SDS011;15886;49.170;14.572;2023-10-09T01:29:17;10.98;;;6.43;;
28714;SDS011;15886;49.170;14.572;2023-10-09T01:31:49;11.23;;;6.13;;
28714;SDS011;15886;49.170;14.572;2023-10-09T01:34:28;10.43;;;5.88;;
28714;SDS011;15886;49.170;14.572;2023-10-09T01:37:10;9.93;;;5.57;;
28714;SDS011;15886;49.170;14.572;2023-10-09T01:39:46;8.50;;;5.32;;
28714;SDS011;15886;49.170;14.572;2023-10-09T01:42:15;9.57;;;6.32;;
28714;SDS011;15886;49.170;14.572;2023-10-09T01:45:02;13.20;;;6.55;;
28714;SDS011;15886;49.170;14.572;2023-10-09T01:47:54;11.40;;;5.95;;
28714;SDS011;15886;49.170;14.572;2023-10-09T01:50:22;12.10;;;5.20;;
28714;SDS011;15886;49.170;14.572;2023-10-09T01:53:03;8.05;;;5.43;;
28714;SDS011;15886;49.170;14.572;2023-10-09T01:55:35;9.65;;;4.78;;
28714;SDS011;15886;49.170;14.572;2023-10-09T01:58:13;7.43;;;4.97;;
28714;SDS011;15886;49.170;14.572;2023-10-09T02:00:50;6.75;;;4.63;;
28714;SDS011;15886;49.170;14.572;2023-10-09T02:03:23;7.80;;;4.80;;
28714;SDS011;15886;49.170;14.572;2023-10-09T02:05:51;10.52;;;5.15;;
28714;SDS011;15886;49.170;14.572;2023-10-09T02:08:44;7.95;;;4.53;;
28714;SDS011;15886;49.170;14.572;2023-10-09T02:11:17;7.38;;;3.90;;
28714;SDS011;15886;49.170;14.572;2023-10-09T02:14:03;8.85;;;4.82;;
28714;SDS011;15886;49.170;14.572;2023-10-09T02:16:42;7.60;;;5.10;;
28714;SDS011;15886;49.170;14.572;2023-10-09T02:19:10;8.00;;;4.70;;
28714;SDS011;15886;49.170;14.572;2023-10-09T02:22:05;10.75;;;5.47;;
28714;SDS011;15886;49.170;14.572;2023-10-09T02:24:43;11.23;;;5.65;;
28714;SDS011;15886;49.170;14.572;2023-10-09T02:27:32;6.07;;;3.72;;
28714;SDS011;15886;49.170;14.572;2023-10-09T02:30:21;8.93;;;4.70;;
28714;SDS011;15886;49.170;14.572;2023-10-09T02:32:56;7.20;;;4.50;;
28714;SDS011;15886;49.170;14.572;2023-10-09T02:35:36;6.30;;;4.22;;
28714;SDS011;15886;49.170;14.572;2023-10-09T02:38:05;8.02;;;4.55;;
28714;SDS011;15886;49.170;14.572;2023-10-09T02:40:34;10.68;;;4.95;;
28714;SDS011;15886;49.170;14.572;2023-10-09T02:45:52;6.00;;;3.40;;
28714;SDS011;15886;49.170;14.572;2023-10-09T02:48:20;7.85;;;3.50;;
28714;SDS011;15886;49.170;14.572;2023-10-09T02:50:52;7.57;;;3.70;;
28714;SDS011;15886;49.170;14.572;2023-10-09T02:53:21;6.60;;;3.67;;
28714;SDS011;15886;49.170;14.572;2023-10-09T02:55:57;6.32;;;3.63;;
28714;SDS011;15886;49.170;14.572;2023-10-09T02:58:40;5.60;;;3.63;;
28714;SDS011;15886;49.170;14.572;2023-10-09T03:01:11;6.10;;;3.67;;
28714;SDS011;15886;49.170;14.572;2023-10-09T03:03:41;7.28;;;3.65;;
28714;SDS011;15886;49.170;14.572;2023-10-09T03:06:14;6.68;;;3.45;;
28714;SDS011;15886;49.170;14.572;2023-10-09T03:08:52;5.75;;;3.38;;
28714;SDS011;15886;49.170;14.572;2023-10-09T03:11:21;4.35;;;2.90;;
28714;SDS011;15886;49.170;14.572;2023-10-09T03:13:50;6.25;;;4.07;;
28714;SDS011;15886;49.170;14.572;2023-10-09T03:16:20;8.10;;;3.92;;
28714;SDS011;15886;49.170;14.572;2023-10-09T03:18:52;5.85;;;3.72;;
28714;SDS011;15886;49.170;14.572;2023-10-09T03:21:20;6.05;;;3.08;;
28714;SDS011;15886;49.170;14.572;2023-10-09T03:23:48;6.32;;;3.40;;
28714;SDS011;15886;49.170;14.572;2023-10-09T03:26:17;5.25;;;3.13;;
28714;SDS011;15886;49.170;14.572;2023-10-09T03:28:48;5.18;;;3.03;;
28714;SDS011;15886;49.170;14.572;2023-10-09T03:31:16;4.88;;;2.78;;
28714;SDS011;15886;49.170;14.572;2023-10-09T03:33:44;5.45;;;2.83;;
28714;SDS011;15886;49.170;14.572;2023-10-09T03:36:12;6.53;;;5.40;;
28714;SDS011;15886;49.170;14.572;2023-10-09T03:38:40;6.18;;;3.60;;
28714;SDS011;15886;49.170;14.572;2023-10-09T03:41:10;5.85;;;2.75;;
28714;SDS011;15886;49.170;14.572;2023-10-09T03:43:40;15.45;;;6.82;;
28714;SDS011;15886;49.170;14.572;2023-10-09T03:46:08;7.07;;;3.63;;
28714;SDS011;15886;49.170;14.572;2023-10-09T03:48:53;4.97;;;2.90;;
28714;SDS011;15886;49.170;14.572;2023-10-09T03:51:24;7.30;;;4.40;;
28714;SDS011;15886;49.170;14.572;2023-10-09T03:53:53;8.57;;;3.67;;
28714;SDS011;15886;49.170;14.572;2023-10-09T03:56:21;4.32;;;3.17;;
28714;SDS011;15886;49.170;14.572;2023-10-09T03:58:50;6.47;;;2.90;;
28714;SDS011;15886;49.170;14.572;2023-10-09T04:01:22;5.82;;;3.13;;
28714;SDS011;15886;49.170;14.572;2023-10-09T04:03:56;6.05;;;3.30;;
28714;SDS011;15886;49.170;14.572;2023-10-09T04:06:29;6.10;;;2.72;;
28714;SDS011;15886;49.170;14.572;2023-10-09T04:09:03;8.15;;;3.63;;
28714;SDS011;15886;49.170;14.572;2023-10-09T04:11:58;10.73;;;3.92;;
28714;SDS011;15886;49.170;14.572;2023-10-09T04:14:41;7.05;;;3.10;;
28714;SDS011;15886;49.170;14.572;2023-10-09T04:17:35;5.05;;;3.33;;
28714;SDS011;15886;49.170;14.572;2023-10-09T04:20:07;8.50;;;2.83;;
28714;SDS011;15886;49.170;14.572;2023-10-09T04:22:47;4.18;;;2.72;;
28714;SDS011;15886;49.170;14.572;2023-10-09T04:25:19;7.63;;;2.95;;
28714;SDS011;15886;49.170;14.572;2023-10-09T04:28:03;4.65;;;2.90;;
28714;SDS011;15886;49.170;14.572;2023-10-09T04:30:38;5.05;;;2.58;;
28714;SDS011;15886;49.170;14.572;2023-10-09T04:33:14;5.97;;;2.38;;
28714;SDS011;15886;49.170;14.572;2023-10-09T04:36:01;8.63;;;3.47;;
28714;SDS011;15886;49.170;14.572;2023-10-09T04:38:49;4.78;;;2.67;;
28714;SDS011;15886;49.170;14.572;2023-10-09T04:41:31;4.18;;;2.58;;
28714;SDS011;15886;49.170;14.572;2023-10-09T04:44:02;3.80;;;2.45;;
28714;SDS011;15886;49.170;14.572;2023-10-09T04:46:45;3.45;;;2.35;;
28714;SDS011;15886;49.170;14.572;2023-10-09T04:49:33;3.78;;;2.78;;
28714;SDS011;15886;49.170;14.572;2023-10-09T04:52:17;5.80;;;2.75;;
28714;SDS011;15886;49.170;14.572;2023-10-09T04:54:58;7.63;;;3.22;;
28714;SDS011;15886;49.170;14.572;2023-10-09T04:57:36;5.90;;;2.58;;
28714;SDS011;15886;49.170;14.572;2023-10-09T05:00:09;7.07;;;3.13;;
28714;SDS011;15886;49.170;14.572;2023-10-09T05:02:54;7.13;;;3.22;;
28714;SDS011;15886;49.170;14.572;2023-10-09T05:05:27;4.05;;;2.38;;
28714;SDS011;15886;49.170;14.572;2023-10-09T05:08:09;5.65;;;2.78;;
28714;SDS011;15886;49.170;14.572;2023-10-09T05:10:58;7.40;;;2.60;;
28714;SDS011;15886;49.170;14.572;2023-10-09T05:13:34;7.05;;;3.80;;
28714;SDS011;15886;49.170;14.572;2023-10-09T05:16:09;5.88;;;3.17;;
28714;SDS011;15886;49.170;14.572;2023-10-09T05:18:53;7.47;;;2.92;;
28714;SDS011;15886;49.170;14.572;2023-10-09T05:21:33;5.65;;;2.85;;
28714;SDS011;15886;49.170;14.572;2023-10-09T05:24:04;5.20;;;2.95;;
28714;SDS011;15886;49.170;14.572;2023-10-09T05:26:45;6.70;;;3.03;;
28714;SDS011;15886;49.170;14.572;2023-10-09T05:29:21;6.00;;;3.20;;
28714;SDS011;15886;49.170;14.572;2023-10-09T05:31:56;4.32;;;2.38;;
28714;SDS011;15886;49.170;14.572;2023-10-09T05:34:45;8.77;;;3.05;;
28714;SDS011;15886;49.170;14.572;2023-10-09T05:37:31;5.00;;;3.00;;
28714;SDS011;15886;49.170;14.572;2023-10-09T05:40:02;3.97;;;2.67;;
28714;SDS011;15886;49.170;14.572;2023-10-09T05:42:46;6.22;;;3.30;;
28714;SDS011;15886;49.170;14.572;2023-10-09T05:45:25;7.47;;;3.38;;
28714;SDS011;15886;49.170;14.572;2023-10-09T05:48:12;8.38;;;3.22;;
28714;SDS011;15886;49.170;14.572;2023-10-09T05:50:40;4.93;;;3.13;;
28714;SDS011;15886;49.170;14.572;2023-10-09T05:53:28;5.43;;;3.03;;
28714;SDS011;15886;49.170;14.572;2023-10-09T05:56:17;4.07;;;2.75;;
28714;SDS011;15886;49.170;14.572;2023-10-09T05:59:03;9.40;;;2.40;;
28714;SDS011;15886;49.170;14.572;2023-10-09T06:01:50;5.43;;;3.20;;
28714;SDS011;15886;49.170;14.572;2023-10-09T06:04:18;5.65;;;3.15;;
28714;SDS011;15886;49.170;14.572;2023-10-09T06:06:47;4.47;;;3.10;;
28714;SDS011;15886;49.170;14.572;2023-10-09T06:12:16;5.30;;;3.05;;
28714;SDS011;15886;49.170;14.572;2023-10-09T06:14:59;4.75;;;2.72;;
28714;SDS011;15886;49.170;14.572;2023-10-09T06:17:56;7.55;;;3.92;;
28714;SDS011;15886;49.170;14.572;2023-10-09T06:20:44;7.10;;;3.60;;
28714;SDS011;15886;49.170;14.572;2023-10-09T06:23:30;6.35;;;3.60;;
28714;SDS011;15886;49.170;14.572;2023-10-09T06:26:17;6.95;;;3.47;;
28714;SDS011;15886;49.170;14.572;2023-10-09T06:28:51;4.97;;;3.38;;
28714;SDS011;15886;49.170;14.572;2023-10-09T06:31:38;9.05;;;3.88;;
28714;SDS011;15886;49.170;14.572;2023-10-09T06:34:28;4.82;;;3.13;;
28714;SDS011;15886;49.170;14.572;2023-10-09T06:37:02;5.10;;;3.13;;
28714;SDS011;15886;49.170;14.572;2023-10-09T06:39:43;5.38;;;3.53;;
28714;SDS011;15886;49.170;14.572;2023-10-09T06:42:18;8.48;;;5.53;;
28714;SDS011;15886;49.170;14.572;2023-10-09T06:45:09;6.47;;;3.70;;
28714;SDS011;15886;49.170;14.572;2023-10-09T06:47:41;11.32;;;4.80;;
28714;SDS011;15886;49.170;14.572;2023-10-09T06:53:56;8.30;;;4.93;;
28714;SDS011;15886;49.170;14.572;2023-10-09T06:56:28;9.20;;;4.45;;
28714;SDS011;15886;49.170;14.572;2023-10-09T06:59:03;9.70;;;5.47;;
28714;SDS011;15886;49.170;14.572;2023-10-09T07:01:52;9.02;;;5.20;;
28714;SDS011;15886;49.170;14.572;2023-10-09T07:07:06;5.30;;;3.50;;
28714;SDS011;15886;49.170;14.572;2023-10-09T07:09:40;12.38;;;6.68;;
28714;SDS011;15886;49.170;14.572;2023-10-09T07:12:34;14.80;;;7.47;;
28714;SDS011;15886;49.170;14.572;2023-10-09T07:15:09;8.43;;;4.75;;
28714;SDS011;15886;49.170;14.572;2023-10-09T07:17:38;7.13;;;4.25;;
28714;SDS011;15886;49.170;14.572;2023-10-09T07:20:07;6.57;;;3.60;;
28714;SDS011;15886;49.170;14.572;2023-10-09T07:22:38;7.03;;;4.32;;
28714;SDS011;15886;49.170;14.572;2023-10-09T07:25:20;8.40;;;3.97;;
28714;SDS011;15886;49.170;14.572;2023-10-09T07:28:11;11.15;;;4.40;;
28714;SDS011;15886;49.170;14.572;2023-10-09T07:30:45;5.50;;;3.47;;
28714;SDS011;15886;49.170;14.572;2023-10-09T07:33:15;13.85;;;4.18;;
28714;SDS011;15886;49.170;14.572;2023-10-09T07:35:46;7.28;;;4.15;;
28714;SDS011;15886;49.170;14.572;2023-10-09T07:38:22;12.82;;;4.50;;
28714;SDS011;15886;49.170;14.572;2023-10-09T07:40:56;11.63;;;4.45;;
28714;SDS011;15886;49.170;14.572;2023-10-09T07:43:40;8.48;;;4.88;;
28714;SDS011;15886;49.170;14.572;2023-10-09T07:46:13;10.15;;;5.25;;
28714;SDS011;15886;49.170;14.572;2023-10-09T07:49:19;9.15;;;4.75;;
28714;SDS011;15886;49.170;14.572;2023-10-09T07:51:53;6.22;;;4.18;;
28714;SDS011;15886;49.170;14.572;2023-10-09T07:54:23;8.35;;;5.22;;
28714;SDS011;15886;49.170;14.572;2023-10-09T07:56:59;8.35;;;4.57;;
28714;SDS011;15886;49.170;14.572;2023-10-09T07:59:46;10.63;;;5.32;;
28714;SDS011;15886;49.170;14.572;2023-10-09T08:02:38;13.85;;;6.22;;
28714;SDS011;15886;49.170;14.572;2023-10-09T08:05:16;10.57;;;5.47;;
28714;SDS011;15886;49.170;14.572;2023-10-09T08:07:46;11.10;;;5.43;;
28714;SDS011;15886;49.170;14.572;2023-10-09T08:10:38;10.00;;;5.13;;
28714;SDS011;15886;49.170;14.572;2023-10-09T08:13:25;16.05;;;6.82;;
28714;SDS011;15886;49.170;14.572;2023-10-09T08:16:12;17.08;;;6.60;;
28714;SDS011;15886;49.170;14.572;2023-10-09T08:18:47;15.93;;;6.60;;
28714;SDS011;15886;49.170;14.572;2023-10-09T08:21:20;11.15;;;5.57;;
28714;SDS011;15886;49.170;14.572;2023-10-09T08:24:08;15.82;;;7.22;;
28714;SDS011;15886;49.170;14.572;2023-10-09T08:26:56;16.42;;;8.18;;
28714;SDS011;15886;49.170;14.572;2023-10-09T08:29:44;18.70;;;8.23;;
28714;SDS011;15886;49.170;14.572;2023-10-09T08:32:15;14.70;;;7.57;;
28714;SDS011;15886;49.170;14.572;2023-10-09T08:35:08;25.08;;;10.60;;
28714;SDS011;15886;49.170;14.572;2023-10-09T08:37:56;23.33;;;9.63;;
28714;SDS011;15886;49.170;14.572;2023-10-09T08:40:36;16.55;;;9.25;;
28714;SDS011;15886;49.170;14.572;2023-10-09T08:43:15;17.77;;;8.75;;
28714;SDS011;15886;49.170;14.572;2023-10-09T08:45:48;16.60;;;7.05;;
28714;SDS011;15886;49.170;14.572;2023-10-09T08:48:20;13.15;;;7.43;;
28714;SDS011;15886;49.170;14.572;2023-10-09T08:50:55;13.98;;;7.72;;
28714;SDS011;15886;49.170;14.572;2023-10-09T08:53:23;11.50;;;6.28;;
28714;SDS011;15886;49.170;14.572;2023-10-09T08:55:55;17.58;;;6.47;;
28714;SDS011;15886;49.170;14.572;2023-10-09T08:58:23;11.38;;;6.47;;
28714;SDS011;15886;49.170;14.572;2023-10-09T09:00:53;13.18;;;6.10;;
28714;SDS011;15886;49.170;14.572;2023-10-09T09:03:26;11.63;;;5.88;;
28714;SDS011;15886;49.170;14.572;2023-10-09T09:06:04;11.80;;;5.03;;
28714;SDS011;15886;49.170;14.572;2023-10-09T09:08:33;10.05;;;5.03;;
28714;SDS011;15886;49.170;14.572;2023-10-09T09:16:22;15.93;;;5.90;;
28714;SDS011;15886;49.170;14.572;2023-10-09T09:21:32;21.02;;;5.55;;
28714;SDS011;15886;49.170;14.572;2023-10-09T09:24:09;20.25;;;7.03;;
28714;SDS011;15886;49.170;14.572;2023-10-09T09:27:00;12.30;;;6.32;;
28714;SDS011;15886;49.170;14.572;2023-10-09T09:29:50;13.43;;;6.38;;
28714;SDS011;15886;49.170;14.572;2023-10-09T09:32:28;15.68;;;6.32;;
28714;SDS011;15886;49.170;14.572;2023-10-09T09:35:02;15.88;;;6.07;;
28714;SDS011;15886;49.170;14.572;2023-10-09T09:37:32;9.50;;;5.47;;
28714;SDS011;15886;49.170;14.572;2023-10-09T09:40:10;15.00;;;6.30;;
28714;SDS011;15886;49.170;14.572;2023-10-09T09:43:01;12.32;;;5.80;;
28714;SDS011;15886;49.170;14.572;2023-10-09T09:45:33;16.35;;;6.43;;
28714;SDS011;15886;49.170;14.572;2023-10-09T09:48:03;17.23;;;6.05;;
28714;SDS011;15886;49.170;14.572;2023-10-09T09:50:42;13.50;;;6.40;;
28714;SDS011;15886;49.170;14.572;2023-10-09T09:53:12;11.20;;;6.15;;
28714;SDS011;15886;49.170;14.572;2023-10-09T09:55:45;13.82;;;5.93;;
28714;SDS011;15886;49.170;14.572;2023-10-09T09:58:25;10.73;;;6.05;;
28714;SDS011;15886;49.170;14.572;2023-10-09T10:01:10;10.23;;;5.32;;
28714;SDS011;15886;49.170;14.572;2023-10-09T10:03:45;17.95;;;6.10;;
28714;SDS011;15886;49.170;14.572;2023-10-09T10:06:19;15.80;;;6.85;;
28714;SDS011;15886;49.170;14.572;2023-10-09T10:08:48;15.60;;;6.20;;
28714;SDS011;15886;49.170;14.572;2023-10-09T10:14:13;19.58;;;6.65;;
28714;SDS011;15886;49.170;14.572;2023-10-09T10:22:44;14.57;;;6.55;;
28714;SDS011;15886;49.170;14.572;2023-10-09T10:31:06;12.10;;;6.72;;
28714;SDS011;15886;49.170;14.572;2023-10-09T10:36:25;14.25;;;5.43;;
28714;SDS011;15886;49.170;14.572;2023-10-09T10:39:00;14.20;;;5.65;;
28714;SDS011;15886;49.170;14.572;2023-10-09T10:41:55;25.00;;;6.97;;
28714;SDS011;15886;49.170;14.572;2023-10-09T10:44:28;14.73;;;6.68;;
28714;SDS011;15886;49.170;14.572;2023-10-09T10:47:10;10.68;;;5.68;;
28714;SDS011;15886;49.170;14.572;2023-10-09T10:50:03;14.73;;;6.13;;
28714;SDS011;15886;49.170;14.572;2023-10-09T10:52:50;17.92;;;6.60;;
28714;SDS011;15886;49.170;14.572;2023-10-09T10:55:24;11.48;;;5.70;;
28714;SDS011;15886;49.170;14.572;2023-10-09T10:57:58;15.32;;;6.22;;
28714;SDS011;15886;49.170;14.572;2023-10-09T11:00:37;13.15;;;6.35;;
28714;SDS011;15886;49.170;14.572;2023-10-09T11:03:24;13.40;;;6.75;;
28714;SDS011;15886;49.170;14.572;2023-10-09T11:06:11;16.52;;;6.38;;
28714;SDS011;15886;49.170;14.572;2023-10-09T11:08:46;13.40;;;6.55;;
28714;SDS011;15886;49.170;14.572;2023-10-09T11:11:21;19.67;;;7.43;;
28714;SDS011;15886;49.170;14.572;2023-10-09T11:13:50;14.82;;;6.40;;
28714;SDS011;15886;49.170;14.572;2023-10-09T11:16:32;15.70;;;6.03;;
28714;SDS011;15886;49.170;14.572;2023-10-09T11:19:11;15.07;;;6.10;;
28714;SDS011;15886;49.170;14.572;2023-10-09T11:21:55;22.33;;;7.22;;
28714;SDS011;15886;49.170;14.572;2023-10-09T11:24:42;17.27;;;6.22;;
28714;SDS011;15886;49.170;14.572;2023-10-09T11:27:11;15.40;;;6.25;;
28714;SDS011;15886;49.170;14.572;2023-10-09T11:29:49;12.57;;;5.97;;
28714;SDS011;15886;49.170;14.572;2023-10-09T11:32:18;13.20;;;5.75;;
28714;SDS011;15886;49.170;14.572;2023-10-09T11:34:50;15.88;;;6.72;;
28714;SDS011;15886;49.170;14.572;2023-10-09T11:37:36;18.67;;;6.75;;
28714;SDS011;15886;49.170;14.572;2023-10-09T11:43:17;17.08;;;6.18;;
28714;SDS011;15886;49.170;14.572;2023-10-09T11:45:51;15.35;;;5.60;;
28714;SDS011;15886;49.170;14.572;2023-10-09T11:48:22;15.57;;;6.63;;
28714;SDS011;15886;49.170;14.572;2023-10-09T11:51:00;14.05;;;6.72;;
28714;SDS011;15886;49.170;14.572;2023-10-09T11:53:41;14.00;;;6.53;;
28714;SDS011;15886;49.170;14.572;2023-10-09T11:56:16;17.15;;;7.15;;
28714;SDS011;15886;49.170;14.572;2023-10-09T11:58:47;19.05;;;6.20;;
28714;SDS011;15886;49.170;14.572;2023-10-09T12:01:19;12.68;;;6.28;;
28714;SDS011;15886;49.170;14.572;2023-10-09T12:03:50;16.15;;;5.82;;
28714;SDS011;15886;49.170;14.572;2023-10-09T12:06:20;20.17;;;7.07;;
28714;SDS011;15886;49.170;14.572;2023-10-09T12:08:57;21.75;;;7.30;;
28714;SDS011;15886;49.170;14.572;2023-10-09T12:11:25;21.42;;;6.03;;
28714;SDS011;15886;49.170;14.572;2023-10-09T12:13:58;14.48;;;6.20;;
28714;SDS011;15886;49.170;14.572;2023-10-09T12:16:28;16.85;;;7.25;;
28714;SDS011;15886;49.170;14.572;2023-10-09T12:18:57;14.82;;;6.72;;
28714;SDS011;15886;49.170;14.572;2023-10-09T12:21:26;20.13;;;7.82;;
28714;SDS011;15886;49.170;14.572;2023-10-09T12:23:55;17.33;;;6.90;;
28714;SDS011;15886;49.170;14.572;2023-10-09T12:26:27;15.07;;;6.38;;
28714;SDS011;15886;49.170;14.572;2023-10-09T12:28:55;20.27;;;6.22;;
28714;SDS011;15886;49.170;14.572;2023-10-09T12:31:25;11.52;;;6.13;;
28714;SDS011;15886;49.170;14.572;2023-10-09T12:33:53;14.73;;;5.70;;
28714;SDS011;15886;49.170;14.572;2023-10-09T12:36:21;21.83;;;7.03;;
28714;SDS011;15886;49.170;14.572;2023-10-09T12:38:49;15.55;;;6.60;;
28714;SDS011;15886;49.170;14.572;2023-10-09T12:41:22;15.23;;;6.65;;
28714;SDS011;15886;49.170;14.572;2023-10-09T12:44:00;16.98;;;6.95;;
28714;SDS011;15886;49.170;14.572;2023-10-09T12:46:31;13.43;;;6.32;;
28714;SDS011;15886;49.170;14.572;2023-10-09T12:49:05;14.63;;;5.95;;
28714;SDS011;15886;49.170;14.572;2023-10-09T12:51:33;18.83;;;7.07;;
28714;SDS011;15886;49.170;14.572;2023-10-09T12:54:01;16.73;;;7.00;;
28714;SDS011;15886;49.170;14.572;2023-10-09T12:56:29;14.63;;;6.85;;
28714;SDS011;15886;49.170;14.572;2023-10-09T12:59:06;12.55;;;5.97;;
28714;SDS011;15886;49.170;14.572;2023-10-09T13:01:42;17.08;;;5.97;;
28714;SDS011;15886;49.170;14.572;2023-10-09T13:04:13;13.05;;;5.82;;
28714;SDS011;15886;49.170;14.572;2023-10-09T13:06:45;16.63;;;7.00;;
28714;SDS011;15886;49.170;14.572;2023-10-09T13:09:14;32.20;;;11.80;;
28714;SDS011;15886;49.170;14.572;2023-10-09T13:11:52;25.75;;;11.02;;
28714;SDS011;15886;49.170;14.572;2023-10-09T13:14:21;19.42;;;8.50;;
28714;SDS011;15886;49.170;14.572;2023-10-09T13:16:49;17.35;;;7.10;;
28714;SDS011;15886;49.170;14.572;2023-10-09T13:19:17;17.02;;;6.47;;
28714;SDS011;15886;49.170;14.572;2023-10-09T13:21:46;13.73;;;6.57;;
28714;SDS011;15886;49.170;14.572;2023-10-09T13:24:16;18.13;;;6.82;;
28714;SDS011;15886;49.170;14.572;2023-10-09T13:26:44;16.95;;;6.85;;
28714;SDS011;15886;49.170;14.572;2023-10-09T13:29:14;14.25;;;7.00;;
28714;SDS011;15886;49.170;14.572;2023-10-09T13:31:49;16.42;;;6.95;;
28714;SDS011;15886;49.170;14.572;2023-10-09T13:34:25;18.85;;;5.63;;
28714;SDS011;15886;49.170;14.572;2023-10-09T13:36:56;14.68;;;5.05;;
28714;SDS011;15886;49.170;14.572;2023-10-09T13:39:26;17.15;;;5.30;;
28714;SDS011;15886;49.170;14.572;2023-10-09T13:41:58;18.20;;;7.30;;
28714;SDS011;15886;49.170;14.572;2023-10-09T13:44:28;14.63;;;6.82;;
28714;SDS011;15886;49.170;14.572;2023-10-09T13:46:58;17.90;;;7.60;;
28714;SDS011;15886;49.170;14.572;2023-10-09T13:49:29;20.10;;;6.40;;
28714;SDS011;15886;49.170;14.572;2023-10-09T13:51:58;16.88;;;6.65;;
28714;SDS011;15886;49.170;14.572;2023-10-09T13:54:27;25.58;;;6.18;;
28714;SDS011;15886;49.170;14.572;2023-10-09T13:57:06;13.35;;;5.32;;
28714;SDS011;15886;49.170;14.572;2023-10-09T13:59:37;13.10;;;6.38;;
28714;SDS011;15886;49.170;14.572;2023-10-09T14:02:11;16.85;;;6.38;;
28714;SDS011;15886;49.170;14.572;2023-10-09T14:04:47;12.52;;;5.93;;
28714;SDS011;15886;49.170;14.572;2023-10-09T14:07:15;15.88;;;6.53;;
28714;SDS011;15886;49.170;14.572;2023-10-09T14:09:44;22.92;;;5.93;;
28714;SDS011;15886;49.170;14.572;2023-10-09T14:12:22;22.48;;;10.45;;
28714;SDS011;15886;49.170;14.572;2023-10-09T14:14:52;15.65;;;6.43;;
28714;SDS011;15886;49.170;14.572;2023-10-09T14:17:24;20.48;;;7.38;;
28714;SDS011;15886;49.170;14.572;2023-10-09T14:19:55;22.05;;;7.65;;
28714;SDS011;15886;49.170;14.572;2023-10-09T14:22:44;12.77;;;6.28;;
28714;SDS011;15886;49.170;14.572;2023-10-09T14:25:13;18.58;;;6.70;;
28714;SDS011;15886;49.170;14.572;2023-10-09T14:27:42;20.90;;;6.47;;
28714;SDS011;15886;49.170;14.572;2023-10-09T14:30:10;34.88;;;9.82;;
28714;SDS011;15886;49.170;14.572;2023-10-09T14:32:40;42.30;;;12.13;;
28714;SDS011;15886;49.170;14.572;2023-10-09T14:35:19;21.10;;;8.65;;
28714;SDS011;15886;49.170;14.572;2023-10-09T14:37:49;16.95;;;6.20;;
28714;SDS011;15886;49.170;14.572;2023-10-09T14:40:17;15.75;;;7.07;;
28714;SDS011;15886;49.170;14.572;2023-10-09T14:42:57;17.38;;;6.35;;
28714;SDS011;15886;49.170;14.572;2023-10-09T14:45:25;19.52;;;5.80;;
28714;SDS011;15886;49.170;14.572;2023-10-09T14:47:53;15.70;;;6.57;;
28714;SDS011;15886;49.170;14.572;2023-10-09T14:50:23;18.15;;;6.63;;
28714;SDS011;15886;49.170;14.572;2023-10-09T14:52:51;21.92;;;6.47;;
28714;SDS011;15886;49.170;14.572;2023-10-09T14:55:19;25.77;;;7.20;;
28714;SDS011;15886;49.170;14.572;2023-10-09T14:57:56;21.38;;;7.13;;
28714;SDS011;15886;49.170;14.572;2023-10-09T15:00:26;15.32;;;6.93;;
28714;SDS011;15886;49.170;14.572;2023-10-09T15:02:54;21.33;;;7.10;;
28714;SDS011;15886;49.170;14.572;2023-10-09T15:05:22;16.10;;;7.28;;
28714;SDS011;15886;49.170;14.572;2023-10-09T15:07:52;14.48;;;7.43;;
28714;SDS011;15886;49.170;14.572;2023-10-09T15:10:20;32.75;;;16.25;;
28714;SDS011;15886;49.170;14.572;2023-10-09T15:12:51;22.67;;;11.48;;
28714;SDS011;15886;49.170;14.572;2023-10-09T15:15:19;19.67;;;9.02;;
28714;SDS011;15886;49.170;14.572;2023-10-09T15:17:52;14.55;;;6.43;;
28714;SDS011;15886;49.170;14.572;2023-10-09T15:20:21;13.73;;;6.60;;
28714;SDS011;15886;49.170;14.572;2023-10-09T15:22:49;21.50;;;6.70;;
28714;SDS011;15886;49.170;14.572;2023-10-09T15:25:17;17.35;;;6.88;;
28714;SDS011;15886;49.170;14.572;2023-10-09T15:27:45;19.40;;;7.15;;
28714;SDS011;15886;49.170;14.572;2023-10-09T15:30:13;27.77;;;8.38;;
28714;SDS011;15886;49.170;14.572;2023-10-09T15:32:44;15.90;;;7.15;;
28714;SDS011;15886;49.170;14.572;2023-10-09T15:35:12;23.25;;;7.63;;
28714;SDS011;15886;49.170;14.572;2023-10-09T15:37:43;17.02;;;8.07;;
28714;SDS011;15886;49.170;14.572;2023-10-09T15:40:14;14.07;;;6.13;;
28714;SDS011;15886;49.170;14.572;2023-10-09T15:42:46;17.42;;;7.18;;
28714;SDS011;15886;49.170;14.572;2023-10-09T15:45:17;14.15;;;6.85;;
28714;SDS011;15886;49.170;14.572;2023-10-09T15:47:49;18.48;;;6.55;;
28714;SDS011;15886;49.170;14.572;2023-10-09T15:50:19;14.88;;;6.05;;
28714;SDS011;15886;49.170;14.572;2023-10-09T15:52:51;19.60;;;7.22;;
28714;SDS011;15886;49.170;14.572;2023-10-09T15:55:23;18.92;;;7.18;;
28714;SDS011;15886;49.170;14.572;2023-10-09T15:57:52;18.30;;;6.50;;
28714;SDS011;15886;49.170;14.572;2023-10-09T16:00:21;16.23;;;6.05;;